Strona główna
METAR-TAF:

METAR-TAF

Lotnisko :

Port lotniczy Kuwejt

Kuwejt, Kuwejt

Szerokość geograficzna: 29-13N, Długość geograficzna: 047-59E, wysokość: 55 m

Aktualna obserwacja pogody

Raport powstał 14 minut temu, godzina 01:00 UTC
Wiatr 3 kt od północny zachód
Temperatura 19°C
Wilgotność 37%
Ciśnienie 1017 hPa
Widzialność 10 km lub więcej
Brak chmur poniżej 1500 m i brak chmur cumulonimbus

METAR: OKBK 050100Z 32003KT CAVOK 19/04 Q1017 NOSIG

czas: 04:14 (01:14 UTC)

Prognoza

Raport powstał 2 godziny i 29 minut temu, godzina 22:45 UTC
Prognoza ważna od 05 godzina 00 UTC do 06 godzina 06 UTC
Wiatr 10 kt od północno-północny zachód
Widzialność: 7000 m
Przejściowo
od 05 godzina 00 UTC do 05 godzina 06 UTC
Wiatr 3 kt z kierunków zmiennych
Widzialność: 4000 m
zmętnienie

TAF: OKBK 042245Z 0500/0606 33010KT 7000 NSC TEMPO 0500/0506 VRB03KT 4000 HZ

Obserwacja i prognoza pogody dla ponad 4000 lotnisk (raport METAR i TAF).

Dostępne stacje oznaczono żółtymi i czerwonymi punktami na mapie.

Najedź kursorem aby zobaczyć nazwę stacji.

Kliknij aby zobaczyć obserwacje i prognozy pogody.

Aby zmienić mapę: kliknij na zielony przycisk z czarnym krzyżykiem, aby powiększyć; na zielony przycisk z myślnikiem, aby pomniejszyć; na zielone strzałki, aby przejść do map sąsiednich.


METAR-TAF: